sensor_id;sensor_type;location;lat;lon;timestamp;temperature;humidity
17333;DHT22;8784;50.94667800;7.08448400;2023-03-13T00:01:01;11.60;99.90
17333;DHT22;8784;50.94667800;7.08448400;2023-03-13T00:03:28;11.50;99.90
17333;DHT22;8784;50.94667800;7.08448400;2023-03-13T00:05:58;11.70;99.90
17333;DHT22;8784;50.94667800;7.08448400;2023-03-13T00:08:27;11.60;99.90
17333;DHT22;8784;50.94667800;7.08448400;2023-03-13T00:11:02;11.50;99.90
17333;DHT22;8784;50.94667800;7.08448400;2023-03-13T00:13:29;11.70;99.90
17333;DHT22;8784;50.94667800;7.08448400;2023-03-13T00:16:00;11.70;99.90
17333;DHT22;8784;50.94667800;7.08448400;2023-03-13T00:18:27;11.70;99.90
17333;DHT22;8784;50.94667800;7.08448400;2023-03-13T00:20:58;11.70;99.90
17333;DHT22;8784;50.94667800;7.08448400;2023-03-13T00:23:25;11.70;99.90
17333;DHT22;8784;50.94667800;7.08448400;2023-03-13T00:25:55;11.80;99.90
17333;DHT22;8784;50.94667800;7.08448400;2023-03-13T00:28:26;11.80;99.90
17333;DHT22;8784;50.94667800;7.08448400;2023-03-13T00:31:00;11.80;99.90
17333;DHT22;8784;50.94667800;7.08448400;2023-03-13T00:33:27;11.90;99.90
17333;DHT22;8784;50.94667800;7.08448400;2023-03-13T00:35:57;11.90;99.90
17333;DHT22;8784;50.94667800;7.08448400;2023-03-13T00:38:26;11.90;99.90
17333;DHT22;8784;50.94667800;7.08448400;2023-03-13T00:40:58;11.90;99.90
17333;DHT22;8784;50.94667800;7.08448400;2023-03-13T00:43:27;11.90;99.90
17333;DHT22;8784;50.94667800;7.08448400;2023-03-13T00:45:55;11.90;99.90
17333;DHT22;8784;50.94667800;7.08448400;2023-03-13T00:48:22;11.70;99.90
17333;DHT22;8784;50.94667800;7.08448400;2023-03-13T00:50:50;11.90;99.90
17333;DHT22;8784;50.94667800;7.08448400;2023-03-13T00:53:17;12.70;99.90
17333;DHT22;8784;50.94667800;7.08448400;2023-03-13T00:55:52;11.70;99.90
17333;DHT22;8784;50.94667800;7.08448400;2023-03-13T00:58:19;11.40;99.90
17333;DHT22;8784;50.94667800;7.08448400;2023-03-13T01:00:48;11.10;99.90
17333;DHT22;8784;50.94667800;7.08448400;2023-03-13T01:03:15;10.90;99.90
17333;DHT22;8784;50.94667800;7.08448400;2023-03-13T01:05:42;10.80;99.90
17333;DHT22;8784;50.94667800;7.08448400;2023-03-13T01:08:09;10.70;99.90
17333;DHT22;8784;50.94667800;7.08448400;2023-03-13T01:10:37;10.70;99.90
17333;DHT22;8784;50.94667800;7.08448400;2023-03-13T01:13:03;10.70;99.90
17333;DHT22;8784;50.94667800;7.08448400;2023-03-13T01:15:34;10.70;99.90
17333;DHT22;8784;50.94667800;7.08448400;2023-03-13T01:18:03;10.70;99.90
17333;DHT22;8784;50.94667800;7.08448400;2023-03-13T01:20:30;10.60;99.90
17333;DHT22;8784;50.94667800;7.08448400;2023-03-13T01:22:57;10.60;99.90
17333;DHT22;8784;50.94667800;7.08448400;2023-03-13T01:25:24;10.60;99.90
17333;DHT22;8784;50.94667800;7.08448400;2023-03-13T01:27:51;10.60;99.90
17333;DHT22;8784;50.94667800;7.08448400;2023-03-13T01:30:18;10.70;99.90
17333;DHT22;8784;50.94667800;7.08448400;2023-03-13T01:32:45;10.70;99.90
17333;DHT22;8784;50.94667800;7.08448400;2023-03-13T01:35:13;10.70;99.90
17333;DHT22;8784;50.94667800;7.08448400;2023-03-13T01:37:42;10.60;99.90
17333;DHT22;8784;50.94667800;7.08448400;2023-03-13T01:40:12;10.60;99.90
17333;DHT22;8784;50.94667800;7.08448400;2023-03-13T01:42:52;10.50;99.90
17333;DHT22;8784;50.94667800;7.08448400;2023-03-13T01:45:52;10.60;99.90
17333;DHT22;8784;50.94667800;7.08448400;2023-03-13T01:48:21;10.70;99.90
17333;DHT22;8784;50.94667800;7.08448400;2023-03-13T01:50:52;10.70;99.90
17333;DHT22;8784;50.94667800;7.08448400;2023-03-13T01:53:22;10.70;99.90
17333;DHT22;8784;50.94667800;7.08448400;2023-03-13T01:55:50;10.90;99.90
17333;DHT22;8784;50.94667800;7.08448400;2023-03-13T01:58:20;10.90;99.90
17333;DHT22;8784;50.94667800;7.08448400;2023-03-13T02:00:48;11.00;99.90
17333;DHT22;8784;50.94667800;7.08448400;2023-03-13T02:03:17;11.10;99.90
17333;DHT22;8784;50.94667800;7.08448400;2023-03-13T02:05:47;11.10;99.90
17333;DHT22;8784;50.94667800;7.08448400;2023-03-13T02:08:20;11.20;99.90
17333;DHT22;8784;50.94667800;7.08448400;2023-03-13T02:10:51;11.30;99.90
17333;DHT22;8784;50.94667800;7.08448400;2023-03-13T02:13:20;11.40;99.90
17333;DHT22;8784;50.94667800;7.08448400;2023-03-13T02:15:47;11.40;99.90
17333;DHT22;8784;50.94667800;7.08448400;2023-03-13T02:18:14;11.50;99.90
17333;DHT22;8784;50.94667800;7.08448400;2023-03-13T02:20:42;11.60;99.90
17333;DHT22;8784;50.94667800;7.08448400;2023-03-13T02:23:15;11.70;99.90
17333;DHT22;8784;50.94667800;7.08448400;2023-03-13T02:25:47;11.70;99.90
17333;DHT22;8784;50.94667800;7.08448400;2023-03-13T02:28:17;11.80;99.90
17333;DHT22;8784;50.94667800;7.08448400;2023-03-13T02:30:46;11.80;99.90
17333;DHT22;8784;50.94667800;7.08448400;2023-03-13T02:33:20;11.70;99.90
17333;DHT22;8784;50.94667800;7.08448400;2023-03-13T02:35:48;11.70;99.90
17333;DHT22;8784;50.94667800;7.08448400;2023-03-13T02:38:19;11.60;99.90
17333;DHT22;8784;50.94667800;7.08448400;2023-03-13T02:40:49;11.60;99.90
17333;DHT22;8784;50.94667800;7.08448400;2023-03-13T02:43:21;11.50;99.90
17333;DHT22;8784;50.94667800;7.08448400;2023-03-13T02:46:07;11.40;99.90
17333;DHT22;8784;50.94667800;7.08448400;2023-03-13T02:48:37;11.40;99.90
17333;DHT22;8784;50.94667800;7.08448400;2023-03-13T02:51:07;11.30;99.90
17333;DHT22;8784;50.94667800;7.08448400;2023-03-13T02:53:37;11.20;99.90
17333;DHT22;8784;50.94667800;7.08448400;2023-03-13T02:56:05;11.20;99.90
17333;DHT22;8784;50.94667800;7.08448400;2023-03-13T02:58:38;11.20;99.90
17333;DHT22;8784;50.94667800;7.08448400;2023-03-13T03:01:06;11.10;99.90
17333;DHT22;8784;50.94667800;7.08448400;2023-03-13T03:03:33;11.00;99.90
17333;DHT22;8784;50.94667800;7.08448400;2023-03-13T03:06:01;11.10;99.90
17333;DHT22;8784;50.94667800;7.08448400;2023-03-13T03:08:28;11.00;99.90
17333;DHT22;8784;50.94667800;7.08448400;2023-03-13T03:10:55;11.10;99.90
17333;DHT22;8784;50.94667800;7.08448400;2023-03-13T03:13:24;11.10;99.90
17333;DHT22;8784;50.94667800;7.08448400;2023-03-13T03:15:51;11.10;99.90
17333;DHT22;8784;50.94667800;7.08448400;2023-03-13T03:18:17;11.10;99.90
17333;DHT22;8784;50.94667800;7.08448400;2023-03-13T03:20:44;11.10;99.90
17333;DHT22;8784;50.94667800;7.08448400;2023-03-13T03:23:11;11.10;99.90
17333;DHT22;8784;50.94667800;7.08448400;2023-03-13T03:25:38;11.10;99.90
17333;DHT22;8784;50.94667800;7.08448400;2023-03-13T03:28:05;11.10;99.90
17333;DHT22;8784;50.94667800;7.08448400;2023-03-13T03:30:35;11.10;99.90
17333;DHT22;8784;50.94667800;7.08448400;2023-03-13T03:33:02;11.10;99.90
17333;DHT22;8784;50.94667800;7.08448400;2023-03-13T03:35:29;11.10;99.90
17333;DHT22;8784;50.94667800;7.08448400;2023-03-13T03:37:56;11.10;99.90
17333;DHT22;8784;50.94667800;7.08448400;2023-03-13T03:40:23;11.30;99.90
17333;DHT22;8784;50.94667800;7.08448400;2023-03-13T03:42:51;11.20;99.90
17333;DHT22;8784;50.94667800;7.08448400;2023-03-13T03:45:18;11.40;99.90
17333;DHT22;8784;50.94667800;7.08448400;2023-03-13T03:47:46;11.40;99.90
17333;DHT22;8784;50.94667800;7.08448400;2023-03-13T03:50:13;11.40;99.90
17333;DHT22;8784;50.94667800;7.08448400;2023-03-13T03:52:40;11.50;99.90
17333;DHT22;8784;50.94667800;7.08448400;2023-03-13T03:55:08;11.50;99.90
17333;DHT22;8784;50.94667800;7.08448400;2023-03-13T03:57:35;11.50;99.90
17333;DHT22;8784;50.94667800;7.08448400;2023-03-13T04:00:03;11.50;99.90
17333;DHT22;8784;50.94667800;7.08448400;2023-03-13T04:02:32;11.60;99.90
17333;DHT22;8784;50.94667800;7.08448400;2023-03-13T04:05:00;11.60;99.90
17333;DHT22;8784;50.94667800;7.08448400;2023-03-13T04:07:27;11.60;99.90
17333;DHT22;8784;50.94667800;7.08448400;2023-03-13T04:09:54;11.60;99.90
17333;DHT22;8784;50.94667800;7.08448400;2023-03-13T04:12:21;11.60;99.90
17333;DHT22;8784;50.94667800;7.08448400;2023-03-13T04:14:48;11.60;99.90
17333;DHT22;8784;50.94667800;7.08448400;2023-03-13T04:17:15;11.70;99.90
17333;DHT22;8784;50.94667800;7.08448400;2023-03-13T04:19:42;11.70;99.90
17333;DHT22;8784;50.94667800;7.08448400;2023-03-13T04:22:10;11.70;99.90
17333;DHT22;8784;50.94667800;7.08448400;2023-03-13T04:24:37;11.70;99.90
17333;DHT22;8784;50.94667800;7.08448400;2023-03-13T04:27:04;11.80;99.90
17333;DHT22;8784;50.94667800;7.08448400;2023-03-13T04:29:32;11.80;99.90
17333;DHT22;8784;50.94667800;7.08448400;2023-03-13T04:32:00;11.90;99.90
17333;DHT22;8784;50.94667800;7.08448400;2023-03-13T04:34:27;11.80;99.90
17333;DHT22;8784;50.94667800;7.08448400;2023-03-13T04:36:54;11.80;99.90
17333;DHT22;8784;50.94667800;7.08448400;2023-03-13T04:39:23;11.80;99.90
17333;DHT22;8784;50.94667800;7.08448400;2023-03-13T04:41:50;11.90;99.90
17333;DHT22;8784;50.94667800;7.08448400;2023-03-13T04:44:17;11.80;99.90
17333;DHT22;8784;50.94667800;7.08448400;2023-03-13T04:46:44;11.90;99.90
17333;DHT22;8784;50.94667800;7.08448400;2023-03-13T04:49:12;12.00;99.90
17333;DHT22;8784;50.94667800;7.08448400;2023-03-13T04:51:39;12.00;99.90
17333;DHT22;8784;50.94667800;7.08448400;2023-03-13T04:54:06;12.10;99.90
17333;DHT22;8784;50.94667800;7.08448400;2023-03-13T04:56:34;12.20;99.90
17333;DHT22;8784;50.94667800;7.08448400;2023-03-13T04:59:01;12.20;99.90
17333;DHT22;8784;50.94667800;7.08448400;2023-03-13T05:01:29;12.30;99.90
17333;DHT22;8784;50.94667800;7.08448400;2023-03-13T05:03:56;12.40;99.90
17333;DHT22;8784;50.94667800;7.08448400;2023-03-13T05:06:22;12.40;99.90
17333;DHT22;8784;50.94667800;7.08448400;2023-03-13T05:08:49;12.40;99.90
17333;DHT22;8784;50.94667800;7.08448400;2023-03-13T05:11:16;12.50;99.90
17333;DHT22;8784;50.94667800;7.08448400;2023-03-13T05:13:45;12.50;99.90
17333;DHT22;8784;50.94667800;7.08448400;2023-03-13T05:16:12;12.50;99.90
17333;DHT22;8784;50.94667800;7.08448400;2023-03-13T05:18:40;12.60;99.90
17333;DHT22;8784;50.94667800;7.08448400;2023-03-13T05:21:07;12.60;99.90
17333;DHT22;8784;50.94667800;7.08448400;2023-03-13T05:23:35;12.60;99.90
17333;DHT22;8784;50.94667800;7.08448400;2023-03-13T05:26:02;12.70;99.90
17333;DHT22;8784;50.94667800;7.08448400;2023-03-13T05:28:29;12.70;99.90
17333;DHT22;8784;50.94667800;7.08448400;2023-03-13T05:30:58;12.70;99.90
17333;DHT22;8784;50.94667800;7.08448400;2023-03-13T05:33:25;12.80;99.90
17333;DHT22;8784;50.94667800;7.08448400;2023-03-13T05:35:52;12.80;99.90
17333;DHT22;8784;50.94667800;7.08448400;2023-03-13T05:38:19;12.80;99.90
17333;DHT22;8784;50.94667800;7.08448400;2023-03-13T05:40:46;12.80;99.90
17333;DHT22;8784;50.94667800;7.08448400;2023-03-13T05:43:13;12.90;99.90
17333;DHT22;8784;50.94667800;7.08448400;2023-03-13T05:45:40;12.90;99.90
17333;DHT22;8784;50.94667800;7.08448400;2023-03-13T05:48:09;12.90;99.90
17333;DHT22;8784;50.94667800;7.08448400;2023-03-13T05:50:36;13.00;99.90
17333;DHT22;8784;50.94667800;7.08448400;2023-03-13T05:53:03;13.00;99.90
17333;DHT22;8784;50.94667800;7.08448400;2023-03-13T05:55:30;13.10;99.90
17333;DHT22;8784;50.94667800;7.08448400;2023-03-13T05:57:57;13.10;99.90
17333;DHT22;8784;50.94667800;7.08448400;2023-03-13T06:00:24;13.10;99.90
17333;DHT22;8784;50.94667800;7.08448400;2023-03-13T06:02:51;13.20;99.90
17333;DHT22;8784;50.94667800;7.08448400;2023-03-13T06:05:19;13.20;99.90
17333;DHT22;8784;50.94667800;7.08448400;2023-03-13T06:07:48;13.30;99.90
17333;DHT22;8784;50.94667800;7.08448400;2023-03-13T06:10:15;13.20;99.90
17333;DHT22;8784;50.94667800;7.08448400;2023-03-13T06:12:42;13.20;99.90
17333;DHT22;8784;50.94667800;7.08448400;2023-03-13T06:15:10;13.30;99.90
17333;DHT22;8784;50.94667800;7.08448400;2023-03-13T06:17:37;13.30;99.90
17333;DHT22;8784;50.94667800;7.08448400;2023-03-13T06:20:05;13.40;99.90
17333;DHT22;8784;50.94667800;7.08448400;2023-03-13T06:22:34;13.40;99.90
17333;DHT22;8784;50.94667800;7.08448400;2023-03-13T06:25:02;13.40;99.90
17333;DHT22;8784;50.94667800;7.08448400;2023-03-13T06:27:29;13.50;99.90
17333;DHT22;8784;50.94667800;7.08448400;2023-03-13T06:29:56;13.50;99.90
17333;DHT22;8784;50.94667800;7.08448400;2023-03-13T06:32:24;13.50;99.90
17333;DHT22;8784;50.94667800;7.08448400;2023-03-13T06:34:51;13.60;99.90
17333;DHT22;8784;50.94667800;7.08448400;2023-03-13T06:37:19;13.60;99.90
17333;DHT22;8784;50.94667800;7.08448400;2023-03-13T06:39:47;13.70;99.90
17333;DHT22;8784;50.94667800;7.08448400;2023-03-13T06:42:14;13.70;99.90
17333;DHT22;8784;50.94667800;7.08448400;2023-03-13T06:44:41;13.70;99.90
17333;DHT22;8784;50.94667800;7.08448400;2023-03-13T06:47:09;13.80;99.90
17333;DHT22;8784;50.94667800;7.08448400;2023-03-13T06:49:36;13.80;99.90
17333;DHT22;8784;50.94667800;7.08448400;2023-03-13T06:52:03;13.80;99.90
17333;DHT22;8784;50.94667800;7.08448400;2023-03-13T06:54:30;13.90;99.90
17333;DHT22;8784;50.94667800;7.08448400;2023-03-13T06:56:59;13.90;99.90
17333;DHT22;8784;50.94667800;7.08448400;2023-03-13T06:59:26;14.00;99.90
17333;DHT22;8784;50.94667800;7.08448400;2023-03-13T07:01:53;14.00;99.90
17333;DHT22;8784;50.94667800;7.08448400;2023-03-13T07:04:20;14.00;99.90
17333;DHT22;8784;50.94667800;7.08448400;2023-03-13T07:06:47;14.10;99.90
17333;DHT22;8784;50.94667800;7.08448400;2023-03-13T07:09:14;14.00;99.90
17333;DHT22;8784;50.94667800;7.08448400;2023-03-13T07:11:41;14.10;99.90
17333;DHT22;8784;50.94667800;7.08448400;2023-03-13T07:14:10;14.10;99.90
17333;DHT22;8784;50.94667800;7.08448400;2023-03-13T07:16:36;14.10;99.90
17333;DHT22;8784;50.94667800;7.08448400;2023-03-13T07:19:03;14.10;99.90
17333;DHT22;8784;50.94667800;7.08448400;2023-03-13T07:21:30;14.10;99.90
17333;DHT22;8784;50.94667800;7.08448400;2023-03-13T07:23:57;14.10;99.90
17333;DHT22;8784;50.94667800;7.08448400;2023-03-13T07:26:24;14.10;99.90
17333;DHT22;8784;50.94667800;7.08448400;2023-03-13T07:28:51;14.20;99.90
17333;DHT22;8784;50.94667800;7.08448400;2023-03-13T07:31:21;14.20;99.90
17333;DHT22;8784;50.94667800;7.08448400;2023-03-13T07:33:49;14.10;99.90
17333;DHT22;8784;50.94667800;7.08448400;2023-03-13T07:36:18;14.20;99.90
17333;DHT22;8784;50.94667800;7.08448400;2023-03-13T07:38:47;14.20;99.90
17333;DHT22;8784;50.94667800;7.08448400;2023-03-13T07:41:14;14.20;99.90
17333;DHT22;8784;50.94667800;7.08448400;2023-03-13T07:43:41;14.20;99.90
17333;DHT22;8784;50.94667800;7.08448400;2023-03-13T07:46:11;14.20;99.90
17333;DHT22;8784;50.94667800;7.08448400;2023-03-13T07:48:41;14.20;99.90
17333;DHT22;8784;50.94667800;7.08448400;2023-03-13T07:51:12;14.30;99.90
17333;DHT22;8784;50.94667800;7.08448400;2023-03-13T07:53:40;14.30;99.90
17333;DHT22;8784;50.94667800;7.08448400;2023-03-13T07:56:09;14.40;99.90
17333;DHT22;8784;50.94667800;7.08448400;2023-03-13T07:58:38;14.50;99.90
17333;DHT22;8784;50.94667800;7.08448400;2023-03-13T08:01:09;14.60;99.90
17333;DHT22;8784;50.94667800;7.08448400;2023-03-13T08:03:36;14.70;99.90
17333;DHT22;8784;50.94667800;7.08448400;2023-03-13T08:06:07;14.70;99.90
17333;DHT22;8784;50.94667800;7.08448400;2023-03-13T08:08:36;14.70;99.90
17333;DHT22;8784;50.94667800;7.08448400;2023-03-13T08:11:06;14.80;99.90
17333;DHT22;8784;50.94667800;7.08448400;2023-03-13T08:13:33;14.80;99.90
17333;DHT22;8784;50.94667800;7.08448400;2023-03-13T08:16:02;14.80;99.90
17333;DHT22;8784;50.94667800;7.08448400;2023-03-13T08:18:29;14.80;99.90
17333;DHT22;8784;50.94667800;7.08448400;2023-03-13T08:21:00;14.80;99.90
17333;DHT22;8784;50.94667800;7.08448400;2023-03-13T08:23:29;14.80;99.90
17333;DHT22;8784;50.94667800;7.08448400;2023-03-13T08:26:01;14.80;99.90
17333;DHT22;8784;50.94667800;7.08448400;2023-03-13T08:28:28;14.80;99.90
17333;DHT22;8784;50.94667800;7.08448400;2023-03-13T08:30:55;14.90;99.90
17333;DHT22;8784;50.94667800;7.08448400;2023-03-13T08:33:22;14.90;99.90
17333;DHT22;8784;50.94667800;7.08448400;2023-03-13T08:35:49;14.90;99.90
17333;DHT22;8784;50.94667800;7.08448400;2023-03-13T08:38:16;14.90;99.90
17333;DHT22;8784;50.94667800;7.08448400;2023-03-13T08:40:44;14.90;99.90
17333;DHT22;8784;50.94667800;7.08448400;2023-03-13T08:43:11;14.90;99.90
17333;DHT22;8784;50.94667800;7.08448400;2023-03-13T08:45:38;14.90;99.90
17333;DHT22;8784;50.94667800;7.08448400;2023-03-13T08:48:05;14.60;99.90
17333;DHT22;8784;50.94667800;7.08448400;2023-03-13T08:50:32;14.50;99.90
17333;DHT22;8784;50.94667800;7.08448400;2023-03-13T08:53:00;14.30;99.90
17333;DHT22;8784;50.94667800;7.08448400;2023-03-13T08:55:27;14.10;99.90
17333;DHT22;8784;50.94667800;7.08448400;2023-03-13T08:57:56;14.10;99.90
17333;DHT22;8784;50.94667800;7.08448400;2023-03-13T09:00:23;14.10;99.90
17333;DHT22;8784;50.94667800;7.08448400;2023-03-13T09:02:50;14.30;99.90
17333;DHT22;8784;50.94667800;7.08448400;2023-03-13T09:05:17;14.40;99.90
17333;DHT22;8784;50.94667800;7.08448400;2023-03-13T09:07:44;14.40;99.90
17333;DHT22;8784;50.94667800;7.08448400;2023-03-13T09:10:11;14.60;99.90
17333;DHT22;8784;50.94667800;7.08448400;2023-03-13T09:12:38;14.60;99.90
17333;DHT22;8784;50.94667800;7.08448400;2023-03-13T09:15:09;14.60;99.90
17333;DHT22;8784;50.94667800;7.08448400;2023-03-13T09:17:36;14.70;99.90
17333;DHT22;8784;50.94667800;7.08448400;2023-03-13T09:20:03;14.70;99.90
17333;DHT22;8784;50.94667800;7.08448400;2023-03-13T09:22:31;14.80;99.90
17333;DHT22;8784;50.94667800;7.08448400;2023-03-13T09:24:57;14.80;99.90
17333;DHT22;8784;50.94667800;7.08448400;2023-03-13T09:27:24;14.80;99.90
17333;DHT22;8784;50.94667800;7.08448400;2023-03-13T09:29:53;14.80;99.90
17333;DHT22;8784;50.94667800;7.08448400;2023-03-13T09:32:21;14.80;99.90
17333;DHT22;8784;50.94667800;7.08448400;2023-03-13T09:34:48;14.80;99.90
17333;DHT22;8784;50.94667800;7.08448400;2023-03-13T09:37:15;14.80;99.90
17333;DHT22;8784;50.94667800;7.08448400;2023-03-13T09:39:42;14.80;99.90
17333;DHT22;8784;50.94667800;7.08448400;2023-03-13T09:42:13;14.70;99.90
17333;DHT22;8784;50.94667800;7.08448400;2023-03-13T09:44:45;14.60;99.90
17333;DHT22;8784;50.94667800;7.08448400;2023-03-13T09:47:19;14.60;99.90
17333;DHT22;8784;50.94667800;7.08448400;2023-03-13T09:49:51;14.70;99.90
17333;DHT22;8784;50.94667800;7.08448400;2023-03-13T09:52:22;14.80;99.90
17333;DHT22;8784;50.94667800;7.08448400;2023-03-13T09:54:52;14.90;99.90
17333;DHT22;8784;50.94667800;7.08448400;2023-03-13T09:57:27;14.90;99.90
17333;DHT22;8784;50.94667800;7.08448400;2023-03-13T09:59:59;14.90;99.90
17333;DHT22;8784;50.94667800;7.08448400;2023-03-13T10:02:30;15.00;99.90
17333;DHT22;8784;50.94667800;7.08448400;2023-03-13T10:05:05;14.90;99.90
17333;DHT22;8784;50.94667800;7.08448400;2023-03-13T10:07:34;15.00;99.90
17333;DHT22;8784;50.94667800;7.08448400;2023-03-13T10:10:11;15.00;99.90
17333;DHT22;8784;50.94667800;7.08448400;2023-03-13T10:12:43;15.00;99.90
17333;DHT22;8784;50.94667800;7.08448400;2023-03-13T10:15:32;15.10;99.90
17333;DHT22;8784;50.94667800;7.08448400;2023-03-13T10:18:11;15.10;99.90
17333;DHT22;8784;50.94667800;7.08448400;2023-03-13T10:20:40;15.10;99.90
17333;DHT22;8784;50.94667800;7.08448400;2023-03-13T10:23:13;15.20;99.90
17333;DHT22;8784;50.94667800;7.08448400;2023-03-13T10:25:42;15.20;99.90
17333;DHT22;8784;50.94667800;7.08448400;2023-03-13T10:28:11;15.20;99.90
17333;DHT22;8784;50.94667800;7.08448400;2023-03-13T10:30:42;15.20;99.90
17333;DHT22;8784;50.94667800;7.08448400;2023-03-13T10:33:21;15.30;99.90
17333;DHT22;8784;50.94667800;7.08448400;2023-03-13T10:36:02;15.40;99.90
17333;DHT22;8784;50.94667800;7.08448400;2023-03-13T10:38:33;15.50;99.90
17333;DHT22;8784;50.94667800;7.08448400;2023-03-13T10:41:02;15.80;99.90
17333;DHT22;8784;50.94667800;7.08448400;2023-03-13T10:43:32;16.10;99.90
17333;DHT22;8784;50.94667800;7.08448400;2023-03-13T10:45:59;16.20;99.90
17333;DHT22;8784;50.94667800;7.08448400;2023-03-13T10:48:29;16.20;99.90
17333;DHT22;8784;50.94667800;7.08448400;2023-03-13T10:51:03;16.30;99.90
17333;DHT22;8784;50.94667800;7.08448400;2023-03-13T10:53:36;16.20;99.90
17333;DHT22;8784;50.94667800;7.08448400;2023-03-13T10:56:11;16.20;99.90
17333;DHT22;8784;50.94667800;7.08448400;2023-03-13T10:58:41;16.30;99.90
17333;DHT22;8784;50.94667800;7.08448400;2023-03-13T11:01:20;16.40;99.90
17333;DHT22;8784;50.94667800;7.08448400;2023-03-13T11:03:49;16.40;99.90
17333;DHT22;8784;50.94667800;7.08448400;2023-03-13T11:06:30;16.40;99.90
17333;DHT22;8784;50.94667800;7.08448400;2023-03-13T11:09:10;16.40;99.90
17333;DHT22;8784;50.94667800;7.08448400;2023-03-13T11:11:46;16.30;99.90
17333;DHT22;8784;50.94667800;7.08448400;2023-03-13T11:14:17;16.50;99.90
17333;DHT22;8784;50.94667800;7.08448400;2023-03-13T11:16:49;16.60;99.90
17333;DHT22;8784;50.94667800;7.08448400;2023-03-13T11:22:39;16.80;99.90
17333;DHT22;8784;50.94667800;7.08448400;2023-03-13T11:25:18;16.90;99.90
17333;DHT22;8784;50.94667800;7.08448400;2023-03-13T11:27:54;17.00;99.90
17333;DHT22;8784;50.94667800;7.08448400;2023-03-13T11:30:41;17.00;99.90
17333;DHT22;8784;50.94667800;7.08448400;2023-03-13T11:33:22;17.00;99.90
17333;DHT22;8784;50.94667800;7.08448400;2023-03-13T11:35:59;17.10;99.90
17333;DHT22;8784;50.94667800;7.08448400;2023-03-13T11:38:31;17.10;99.90
17333;DHT22;8784;50.94667800;7.08448400;2023-03-13T11:41:08;17.10;99.90
17333;DHT22;8784;50.94667800;7.08448400;2023-03-13T11:43:46;17.10;99.90
17333;DHT22;8784;50.94667800;7.08448400;2023-03-13T11:46:37;17.10;99.90
17333;DHT22;8784;50.94667800;7.08448400;2023-03-13T11:49:19;17.10;99.90
17333;DHT22;8784;50.94667800;7.08448400;2023-03-13T11:52:00;17.20;99.90
17333;DHT22;8784;50.94667800;7.08448400;2023-03-13T11:57:47;17.30;99.90
17333;DHT22;8784;50.94667800;7.08448400;2023-03-13T12:00:21;17.70;99.90
17333;DHT22;8784;50.94667800;7.08448400;2023-03-13T12:02:54;17.90;99.90
17333;DHT22;8784;50.94667800;7.08448400;2023-03-13T12:05:24;18.00;99.90
17333;DHT22;8784;50.94667800;7.08448400;2023-03-13T12:07:55;17.20;99.90
17333;DHT22;8784;50.94667800;7.08448400;2023-03-13T12:10:26;18.20;99.90
17333;DHT22;8784;50.94667800;7.08448400;2023-03-13T12:13:01;18.00;99.90
17333;DHT22;8784;50.94667800;7.08448400;2023-03-13T12:15:31;17.90;99.90
17333;DHT22;8784;50.94667800;7.08448400;2023-03-13T12:18:02;17.70;99.90
17333;DHT22;8784;50.94667800;7.08448400;2023-03-13T12:20:36;17.60;99.90
17333;DHT22;8784;50.94667800;7.08448400;2023-03-13T12:23:17;17.50;99.90
17333;DHT22;8784;50.94667800;7.08448400;2023-03-13T12:25:48;17.70;99.90
17333;DHT22;8784;50.94667800;7.08448400;2023-03-13T12:28:28;17.70;99.90
17333;DHT22;8784;50.94667800;7.08448400;2023-03-13T12:31:05;17.90;99.90
17333;DHT22;8784;50.94667800;7.08448400;2023-03-13T12:33:37;18.00;99.90
17333;DHT22;8784;50.94667800;7.08448400;2023-03-13T12:36:11;18.10;99.90
17333;DHT22;8784;50.94667800;7.08448400;2023-03-13T12:38:41;18.10;99.90
17333;DHT22;8784;50.94667800;7.08448400;2023-03-13T12:41:18;18.20;99.90
17333;DHT22;8784;50.94667800;7.08448400;2023-03-13T12:43:49;18.20;99.90
17333;DHT22;8784;50.94667800;7.08448400;2023-03-13T12:46:36;18.30;99.90
17333;DHT22;8784;50.94667800;7.08448400;2023-03-13T12:49:43;18.40;99.90
17333;DHT22;8784;50.94667800;7.08448400;2023-03-13T12:52:31;18.30;99.90
17333;DHT22;8784;50.94667800;7.08448400;2023-03-13T12:55:28;18.20;99.90
17333;DHT22;8784;50.94667800;7.08448400;2023-03-13T12:58:20;18.20;99.90
17333;DHT22;8784;50.94667800;7.08448400;2023-03-13T13:00:51;18.20;99.90
17333;DHT22;8784;50.94667800;7.08448400;2023-03-13T13:03:26;18.20;99.90
17333;DHT22;8784;50.94667800;7.08448400;2023-03-13T13:06:05;18.10;99.90
17333;DHT22;8784;50.94667800;7.08448400;2023-03-13T13:08:38;18.10;99.90
17333;DHT22;8784;50.94667800;7.08448400;2023-03-13T13:15:00;18.30;99.90
17333;DHT22;8784;50.94667800;7.08448400;2023-03-13T13:17:42;18.30;99.90
17333;DHT22;8784;50.94667800;7.08448400;2023-03-13T13:20:40;18.30;99.90
17333;DHT22;8784;50.94667800;7.08448400;2023-03-13T13:23:31;18.20;99.90
17333;DHT22;8784;50.94667800;7.08448400;2023-03-13T13:26:49;18.10;99.90
17333;DHT22;8784;50.94667800;7.08448400;2023-03-13T13:32:43;17.90;99.90
17333;DHT22;8784;50.94667800;7.08448400;2023-03-13T13:35:34;17.90;99.90
17333;DHT22;8784;50.94667800;7.08448400;2023-03-13T13:38:30;17.80;99.90
17333;DHT22;8784;50.94667800;7.08448400;2023-03-13T13:41:04;17.70;99.90
17333;DHT22;8784;50.94667800;7.08448400;2023-03-13T13:43:33;17.70;99.90
17333;DHT22;8784;50.94667800;7.08448400;2023-03-13T13:46:02;17.70;99.90
17333;DHT22;8784;50.94667800;7.08448400;2023-03-13T13:48:35;17.70;99.90
17333;DHT22;8784;50.94667800;7.08448400;2023-03-13T13:51:23;17.60;99.90
17333;DHT22;8784;50.94667800;7.08448400;2023-03-13T13:53:58;17.50;99.90
17333;DHT22;8784;50.94667800;7.08448400;2023-03-13T13:56:35;17.40;99.90
17333;DHT22;8784;50.94667800;7.08448400;2023-03-13T13:59:15;17.30;99.90
17333;DHT22;8784;50.94667800;7.08448400;2023-03-13T14:02:09;17.20;99.90
17333;DHT22;8784;50.94667800;7.08448400;2023-03-13T14:04:41;17.40;99.90
17333;DHT22;8784;50.94667800;7.08448400;2023-03-13T14:07:15;17.50;99.90